createdAt,value
2017-11-07T00:01:00.695Z,3.20
2017-11-07T00:03:28.346Z,3.20
2017-11-07T00:05:57.085Z,3.20
2017-11-07T00:08:24.750Z,3.19
2017-11-07T00:10:52.431Z,3.23
2017-11-07T00:13:20.077Z,3.26
2017-11-07T00:15:47.755Z,3.21
2017-11-07T00:18:15.413Z,3.15
2017-11-07T00:20:43.113Z,3.10
2017-11-07T00:23:10.759Z,3.11
2017-11-07T00:25:38.478Z,3.04
2017-11-07T00:28:06.127Z,3.01
2017-11-07T00:30:33.806Z,3.06
2017-11-07T00:33:01.458Z,3.07
2017-11-07T00:35:29.159Z,3.05
2017-11-07T00:37:56.845Z,2.97
2017-11-07T00:40:24.490Z,2.92
2017-11-07T00:42:52.192Z,2.94
2017-11-07T00:45:19.868Z,2.96
2017-11-07T00:47:47.550Z,3.02
2017-11-07T00:50:15.203Z,3.02
2017-11-07T00:52:43.775Z,3.00
2017-11-07T00:55:11.419Z,3.01
2017-11-07T00:57:39.104Z,3.02
2017-11-07T01:00:06.749Z,3.00
2017-11-07T01:02:34.446Z,3.01
2017-11-07T01:05:02.104Z,2.98
2017-11-07T01:07:29.795Z,2.98
2017-11-07T01:09:57.448Z,2.96
2017-11-07T01:12:25.128Z,2.94
2017-11-07T01:14:52.776Z,2.86
2017-11-07T01:17:20.481Z,2.83
2017-11-07T01:19:48.129Z,2.84
2017-11-07T01:22:15.775Z,2.85
2017-11-07T01:24:43.472Z,2.83
2017-11-07T01:27:11.108Z,2.83
2017-11-07T01:29:42.026Z,2.75
2017-11-07T01:32:09.670Z,2.65
2017-11-07T01:34:37.354Z,2.58
2017-11-07T01:37:05.039Z,2.52
2017-11-07T01:39:32.723Z,2.51
2017-11-07T01:42:00.381Z,2.55
2017-11-07T01:44:28.058Z,2.56
2017-11-07T01:46:55.700Z,2.52
2017-11-07T01:49:23.380Z,2.49
2017-11-07T01:51:51.030Z,2.48
2017-11-07T01:54:18.716Z,2.42
2017-11-07T01:56:46.373Z,2.41
2017-11-07T01:59:14.095Z,2.40
2017-11-07T02:01:41.775Z,2.42
2017-11-07T02:04:09.424Z,2.44
2017-11-07T02:06:37.099Z,2.43
2017-11-07T02:09:04.810Z,2.46
2017-11-07T02:11:32.499Z,2.50
2017-11-07T02:14:00.128Z,2.56
2017-11-07T02:16:27.816Z,2.50
2017-11-07T02:18:55.465Z,2.52
2017-11-07T02:21:23.174Z,2.53
2017-11-07T02:23:50.814Z,2.52
2017-11-07T02:26:18.502Z,2.42
2017-11-07T02:28:46.174Z,2.35
2017-11-07T02:31:13.858Z,2.31
2017-11-07T02:33:41.507Z,2.25
2017-11-07T02:36:09.210Z,2.25
2017-11-07T02:38:36.925Z,2.21
2017-11-07T02:41:04.606Z,2.22
2017-11-07T02:43:32.267Z,2.26
2017-11-07T02:45:59.949Z,2.29
2017-11-07T02:48:27.587Z,2.28
2017-11-07T02:50:55.275Z,2.28
2017-11-07T02:53:22.946Z,2.26
2017-11-07T02:55:50.644Z,2.24
2017-11-07T02:58:18.289Z,2.21
2017-11-07T03:00:45.966Z,2.13
2017-11-07T03:03:13.618Z,2.07
2017-11-07T03:05:41.320Z,1.94
2017-11-07T03:08:08.976Z,1.88
2017-11-07T03:10:36.620Z,1.81
2017-11-07T03:13:04.310Z,1.78
2017-11-07T03:15:31.960Z,1.81
2017-11-07T03:17:59.643Z,1.78
2017-11-07T03:20:27.321Z,1.66
2017-11-07T03:22:55.036Z,1.57
2017-11-07T03:25:22.677Z,1.58
2017-11-07T03:27:50.353Z,1.62
2017-11-07T03:30:17.999Z,1.67
2017-11-07T03:32:45.693Z,1.69
2017-11-07T03:35:13.351Z,1.68
2017-11-07T03:37:41.070Z,1.70
2017-11-07T03:40:08.723Z,1.72
2017-11-07T03:42:36.391Z,1.73
2017-11-07T03:45:04.047Z,1.74
2017-11-07T03:47:31.700Z,1.69
2017-11-07T03:49:59.501Z,1.64
2017-11-07T03:52:27.142Z,1.61
2017-11-07T03:54:54.822Z,1.49
2017-11-07T03:57:22.470Z,1.44
2017-11-07T03:59:50.146Z,1.43
2017-11-07T04:02:17.774Z,1.45
2017-11-07T04:04:45.458Z,1.42
2017-11-07T04:07:13.123Z,1.39
2017-11-07T04:09:40.805Z,1.42
2017-11-07T04:12:08.383Z,1.39
2017-11-07T04:14:36.062Z,1.26
2017-11-07T04:17:03.716Z,1.20
2017-11-07T04:19:31.411Z,1.21
2017-11-07T04:21:59.049Z,1.27
2017-11-07T04:24:26.741Z,1.35
2017-11-07T04:26:54.387Z,1.42
2017-11-07T04:29:22.029Z,1.46
2017-11-07T04:31:49.729Z,1.46
2017-11-07T04:34:17.393Z,1.42
2017-11-07T04:36:45.106Z,1.45
2017-11-07T04:39:12.745Z,1.42
2017-11-07T04:41:40.428Z,1.40
2017-11-07T04:44:08.081Z,1.36
2017-11-07T04:46:35.773Z,1.33
2017-11-07T04:49:03.430Z,1.34
2017-11-07T04:51:31.118Z,1.37
2017-11-07T04:53:58.748Z,1.41
2017-11-07T04:56:26.445Z,1.42
2017-11-07T04:58:54.083Z,1.48
2017-11-07T05:01:21.734Z,1.41
2017-11-07T05:03:49.453Z,1.44
2017-11-07T05:06:17.110Z,1.49
2017-11-07T05:08:44.790Z,1.49
2017-11-07T05:11:12.433Z,1.46
2017-11-07T05:13:40.110Z,1.37
2017-11-07T05:16:07.762Z,1.34
2017-11-07T05:18:35.470Z,1.31
2017-11-07T05:21:03.127Z,1.31
2017-11-07T05:23:30.807Z,1.26
2017-11-07T05:25:58.489Z,1.24
2017-11-07T05:28:26.185Z,1.24
2017-11-07T05:30:53.834Z,1.25
2017-11-07T05:33:21.524Z,1.25
2017-11-07T05:35:49.180Z,1.27
2017-11-07T05:38:16.903Z,1.33
2017-11-07T05:40:44.547Z,1.34
2017-11-07T05:43:12.254Z,1.39
2017-11-07T05:45:39.897Z,1.44
2017-11-07T05:48:07.583Z,1.46
2017-11-07T05:50:35.242Z,1.48
2017-11-07T05:53:02.873Z,1.47
2017-11-07T05:55:30.530Z,1.50
2017-11-07T05:57:58.229Z,1.49
2017-11-07T06:00:25.890Z,1.44
2017-11-07T06:02:53.591Z,1.34
2017-11-07T06:05:21.231Z,1.24
2017-11-07T06:07:49.918Z,1.19
2017-11-07T06:10:17.555Z,1.12
2017-11-07T06:12:45.238Z,1.06
2017-11-07T06:15:12.966Z,1.01
2017-11-07T06:17:40.607Z,1.02
2017-11-07T06:20:08.284Z,1.02
2017-11-07T06:22:35.948Z,1.02
2017-11-07T06:25:03.657Z,1.02
2017-11-07T06:27:31.324Z,0.95
2017-11-07T06:29:59.029Z,1.00
2017-11-07T06:32:26.671Z,0.97
2017-11-07T06:34:54.364Z,0.92
2017-11-07T06:37:22.064Z,0.94
2017-11-07T06:39:49.770Z,0.96
2017-11-07T06:42:17.413Z,0.99
2017-11-07T06:44:45.122Z,1.02
2017-11-07T06:47:12.766Z,1.06
2017-11-07T06:49:40.496Z,1.03
2017-11-07T06:52:08.307Z,1.04
2017-11-07T06:54:35.976Z,1.09
2017-11-07T06:57:03.677Z,1.06
2017-11-07T06:59:31.322Z,1.07
2017-11-07T07:01:59.032Z,1.09
2017-11-07T07:04:26.677Z,1.08
2017-11-07T07:06:54.357Z,1.05
2017-11-07T07:09:22.011Z,1.11
2017-11-07T07:11:49.720Z,1.21
2017-11-07T07:14:17.376Z,1.31
2017-11-07T07:16:45.050Z,1.28
2017-11-07T07:19:12.757Z,1.26
2017-11-07T07:21:40.460Z,1.31
2017-11-07T07:24:08.136Z,1.28
2017-11-07T07:26:35.843Z,1.34
2017-11-07T07:29:03.504Z,1.39
2017-11-07T07:31:31.199Z,1.45
2017-11-07T07:33:58.838Z,1.52
2017-11-07T07:36:26.562Z,1.53
2017-11-07T07:38:54.243Z,1.47
2017-11-07T07:41:21.878Z,1.45
2017-11-07T07:43:49.592Z,1.34
2017-11-07T07:46:17.241Z,1.42
2017-11-07T07:48:44.918Z,1.55
2017-11-07T07:51:12.626Z,1.65
2017-11-07T07:53:40.477Z,1.69
2017-11-07T07:56:08.130Z,1.74
2017-11-07T07:58:35.805Z,1.67
2017-11-07T08:01:03.444Z,1.78
2017-11-07T08:03:31.181Z,1.87
2017-11-07T08:05:58.975Z,1.78
2017-11-07T08:08:27.803Z,1.75
2017-11-07T08:10:55.488Z,1.76
2017-11-07T08:13:23.220Z,1.80
2017-11-07T08:15:50.935Z,1.83
2017-11-07T08:18:18.637Z,1.92
2017-11-07T08:20:46.341Z,2.03
2017-11-07T08:23:14.050Z,2.01
2017-11-07T08:25:41.699Z,1.99
2017-11-07T08:28:09.354Z,2.06
2017-11-07T08:30:37.031Z,1.93
2017-11-07T08:33:04.681Z,1.99
2017-11-07T08:35:32.362Z,2.02
2017-11-07T08:38:00.035Z,2.02
2017-11-07T08:40:27.717Z,1.98
2017-11-07T08:42:55.357Z,2.00
2017-11-07T08:45:23.039Z,2.17
2017-11-07T08:47:50.726Z,2.25
2017-11-07T08:50:18.407Z,2.38
2017-11-07T08:52:46.036Z,2.51
2017-11-07T08:55:13.721Z,2.55
2017-11-07T08:57:41.366Z,2.55
2017-11-07T09:00:09.053Z,2.67
2017-11-07T09:02:36.691Z,2.63
2017-11-07T09:05:04.397Z,2.73
2017-11-07T09:07:32.049Z,2.73
2017-11-07T09:09:59.729Z,2.73
2017-11-07T09:12:27.393Z,2.71
2017-11-07T09:14:55.063Z,2.65
2017-11-07T09:17:22.720Z,2.81
2017-11-07T09:19:50.418Z,2.85
2017-11-07T09:22:18.059Z,3.02
2017-11-07T09:24:45.791Z,2.98
2017-11-07T09:27:13.438Z,3.17
2017-11-07T09:29:41.176Z,3.22
2017-11-07T09:32:08.815Z,3.38
2017-11-07T09:34:36.506Z,3.45
2017-11-07T09:37:04.182Z,3.31
2017-11-07T09:39:31.852Z,3.31
2017-11-07T09:41:59.536Z,3.23
2017-11-07T09:44:27.179Z,3.30
2017-11-07T09:46:54.882Z,3.19
2017-11-07T09:49:22.537Z,3.22
2017-11-07T09:51:50.278Z,3.37
2017-11-07T09:54:18.011Z,3.56
2017-11-07T09:56:45.729Z,3.48
2017-11-07T09:59:13.478Z,3.42
2017-11-07T10:01:41.209Z,3.39
2017-11-07T10:04:08.869Z,3.35
2017-11-07T10:06:36.581Z,3.33
2017-11-07T10:09:05.223Z,3.56
2017-11-07T10:11:32.920Z,3.72
2017-11-07T10:14:00.587Z,3.93
2017-11-07T10:16:28.278Z,3.96
2017-11-07T10:18:55.960Z,4.12
2017-11-07T10:21:23.611Z,4.12
2017-11-07T10:23:51.287Z,4.17
2017-11-07T10:26:18.918Z,4.08
2017-11-07T10:28:46.606Z,4.13
2017-11-07T10:31:14.252Z,4.17
2017-11-07T10:33:41.945Z,4.30
2017-11-07T10:36:09.611Z,4.41
2017-11-07T10:38:37.337Z,4.47
2017-11-07T10:41:04.982Z,4.59
2017-11-07T10:43:32.623Z,4.62
2017-11-07T10:46:00.334Z,4.61
2017-11-07T10:48:28.080Z,4.70
2017-11-07T10:50:55.749Z,4.77
2017-11-07T10:53:23.472Z,4.90
2017-11-07T10:55:51.154Z,4.86
2017-11-07T10:58:18.802Z,4.95
2017-11-07T11:00:46.504Z,5.05
2017-11-07T11:03:14.155Z,5.04
2017-11-07T11:05:41.920Z,4.95
2017-11-07T11:08:09.572Z,4.91
2017-11-07T11:10:37.268Z,4.94
2017-11-07T11:13:04.948Z,4.87
2017-11-07T11:15:32.691Z,5.02
2017-11-07T11:18:00.355Z,4.94
2017-11-07T11:20:28.029Z,4.89
2017-11-07T11:22:55.678Z,4.91
2017-11-07T11:25:23.384Z,4.90
2017-11-07T11:27:51.028Z,4.96
2017-11-07T11:30:18.710Z,5.04
2017-11-07T11:32:46.359Z,5.21
2017-11-07T11:35:14.067Z,5.33
2017-11-07T11:37:41.748Z,5.33
2017-11-07T11:40:09.424Z,5.26
2017-11-07T11:42:37.065Z,5.28
2017-11-07T11:45:04.779Z,5.26
2017-11-07T11:47:32.437Z,5.26
2017-11-07T11:50:01.082Z,5.43
2017-11-07T11:52:28.732Z,5.55
2017-11-07T11:54:56.403Z,5.44
2017-11-07T11:57:24.104Z,5.30
2017-11-07T11:59:51.708Z,5.38
2017-11-07T12:02:19.402Z,5.39
2017-11-07T12:04:47.046Z,5.37
2017-11-07T12:07:14.743Z,5.39
2017-11-07T12:09:43.520Z,5.56
2017-11-07T12:12:11.227Z,5.69
2017-11-07T12:14:38.881Z,5.54
2017-11-07T12:17:06.569Z,5.48
2017-11-07T12:19:34.240Z,5.47
2017-11-07T12:22:01.945Z,5.50
2017-11-07T12:24:29.593Z,5.54
2017-11-07T12:26:57.310Z,5.67
2017-11-07T12:29:24.962Z,5.81
2017-11-07T12:31:52.678Z,5.98
2017-11-07T12:34:20.376Z,6.14
2017-11-07T12:36:48.042Z,6.15
2017-11-07T12:39:15.782Z,5.94
2017-11-07T12:41:43.437Z,5.77
2017-11-07T12:44:11.126Z,5.71
2017-11-07T12:46:38.769Z,5.74
2017-11-07T12:49:06.452Z,5.86
2017-11-07T12:51:45.805Z,5.97
2017-11-07T12:54:13.496Z,6.07
2017-11-07T12:56:41.137Z,6.33
2017-11-07T12:59:08.808Z,6.58
2017-11-07T13:01:36.498Z,6.58
2017-11-07T13:04:04.213Z,6.62
2017-11-07T13:06:31.876Z,6.50
2017-11-07T13:08:59.519Z,6.40
2017-11-07T13:11:27.208Z,6.36
2017-11-07T13:13:54.874Z,6.32
2017-11-07T13:16:22.583Z,6.39
2017-11-07T13:18:50.217Z,6.35
2017-11-07T13:21:17.899Z,6.36
2017-11-07T13:23:45.542Z,6.44
2017-11-07T13:26:13.230Z,6.52
2017-11-07T13:28:40.894Z,6.48
2017-11-07T13:31:08.583Z,6.29
2017-11-07T13:33:36.224Z,6.24
2017-11-07T13:36:03.937Z,6.25
2017-11-07T13:38:31.626Z,6.17
2017-11-07T13:40:59.308Z,6.11
2017-11-07T13:43:26.970Z,6.11
2017-11-07T13:45:54.670Z,6.18
2017-11-07T13:48:22.312Z,6.19
2017-11-07T13:50:49.952Z,6.24
2017-11-07T13:53:17.654Z,6.25
2017-11-07T13:55:45.303Z,6.24
2017-11-07T13:58:12.994Z,6.29
2017-11-07T14:00:40.656Z,6.29
2017-11-07T14:03:08.349Z,6.30
2017-11-07T14:05:35.993Z,6.23
2017-11-07T14:08:03.690Z,6.22
2017-11-07T14:10:31.898Z,6.13
2017-11-07T14:12:59.587Z,6.12
2017-11-07T14:15:27.267Z,6.17
2017-11-07T14:17:55.048Z,6.14
2017-11-07T14:20:22.685Z,6.13
2017-11-07T14:22:50.382Z,5.99
2017-11-07T14:25:18.045Z,5.92
2017-11-07T14:27:45.779Z,5.89
2017-11-07T14:30:13.424Z,5.86
2017-11-07T14:32:41.115Z,5.84
2017-11-07T14:35:08.791Z,5.83
2017-11-07T14:37:37.516Z,5.83
2017-11-07T14:40:05.157Z,5.85
2017-11-07T14:42:32.749Z,5.86
2017-11-07T14:45:00.445Z,5.89
2017-11-07T14:47:28.032Z,5.93
2017-11-07T14:49:55.719Z,5.94
2017-11-07T14:52:23.391Z,5.95
2017-11-07T14:54:51.086Z,5.94
2017-11-07T14:57:18.755Z,5.91
2017-11-07T14:59:46.455Z,5.86
2017-11-07T15:02:14.099Z,5.81
2017-11-07T15:04:41.768Z,5.77
2017-11-07T15:07:09.442Z,5.72
2017-11-07T15:09:37.142Z,5.66
2017-11-07T15:12:04.787Z,5.60
2017-11-07T15:14:32.488Z,5.54
2017-11-07T15:17:00.151Z,5.48
2017-11-07T15:19:27.820Z,5.42
2017-11-07T15:21:55.539Z,5.39
2017-11-07T15:24:23.217Z,5.38
2017-11-07T15:26:50.896Z,5.37
2017-11-07T15:29:18.566Z,5.37
2017-11-07T15:31:46.255Z,5.36
2017-11-07T15:34:13.902Z,5.34
2017-11-07T15:36:41.621Z,5.32
2017-11-07T15:39:09.336Z,5.29
2017-11-07T15:41:37.040Z,5.26
2017-11-07T15:44:04.712Z,5.24
2017-11-07T15:46:32.422Z,5.21
2017-11-07T15:49:00.118Z,5.17
2017-11-07T15:51:27.798Z,5.12
2017-11-07T15:53:55.496Z,5.09
2017-11-07T15:56:23.167Z,5.06
2017-11-07T15:58:51.908Z,5.02
2017-11-07T16:01:19.564Z,5.00
2017-11-07T16:03:47.277Z,4.99
2017-11-07T16:06:14.878Z,4.96
2017-11-07T16:08:42.579Z,4.95
2017-11-07T16:11:10.263Z,4.94
2017-11-07T16:13:37.953Z,4.91
2017-11-07T16:16:05.651Z,4.88
2017-11-07T16:18:33.377Z,4.82
2017-11-07T16:21:01.037Z,4.78
2017-11-07T16:23:28.757Z,4.73
2017-11-07T16:25:56.439Z,4.69
2017-11-07T16:28:24.133Z,4.67
2017-11-07T16:30:51.827Z,4.64
2017-11-07T16:33:19.524Z,4.60
2017-11-07T16:35:47.229Z,4.56
2017-11-07T16:38:14.964Z,4.53
2017-11-07T16:40:42.668Z,4.49
2017-11-07T16:43:10.344Z,4.43
2017-11-07T16:45:38.087Z,4.33
2017-11-07T16:48:05.787Z,4.24
2017-11-07T16:50:33.485Z,4.16
2017-11-07T16:53:01.094Z,4.11
2017-11-07T16:55:28.802Z,4.04
2017-11-07T16:57:56.484Z,3.96
2017-11-07T17:00:24.204Z,3.88
2017-11-07T17:02:51.875Z,3.82
2017-11-07T17:05:19.555Z,3.75
2017-11-07T17:07:47.267Z,3.66
2017-11-07T17:10:14.942Z,3.59
2017-11-07T17:12:42.634Z,3.52
2017-11-07T17:15:10.289Z,3.45
2017-11-07T17:17:38.008Z,3.37
2017-11-07T17:20:05.665Z,3.29
2017-11-07T17:22:33.377Z,3.21
2017-11-07T17:25:01.044Z,3.16
2017-11-07T17:27:28.730Z,3.08
2017-11-07T17:29:56.392Z,3.02
2017-11-07T17:32:24.113Z,2.93
2017-11-07T17:34:51.775Z,2.84
2017-11-07T17:37:19.470Z,2.79
2017-11-07T17:39:47.176Z,2.73
2017-11-07T17:42:14.835Z,2.66
2017-11-07T17:44:42.564Z,2.61
2017-11-07T17:47:10.223Z,2.57
2017-11-07T17:49:37.896Z,2.50
2017-11-07T17:52:05.549Z,2.42
2017-11-07T17:54:33.234Z,2.37
2017-11-07T17:57:00.901Z,2.33
2017-11-07T17:59:28.596Z,2.29
2017-11-07T18:01:56.266Z,2.23
2017-11-07T18:04:23.950Z,2.20
2017-11-07T18:06:51.621Z,2.16
2017-11-07T18:09:19.321Z,2.12
2017-11-07T18:11:46.973Z,2.08
2017-11-07T18:14:14.696Z,2.04
2017-11-07T18:16:42.380Z,1.99
2017-11-07T18:19:10.039Z,1.90
2017-11-07T18:21:37.726Z,1.84
2017-11-07T18:24:05.362Z,1.81
2017-11-07T18:26:33.050Z,1.78
2017-11-07T18:29:00.694Z,1.74
2017-11-07T18:31:28.380Z,1.72
2017-11-07T18:33:56.054Z,1.74
2017-11-07T18:36:23.770Z,1.76
2017-11-07T18:38:51.479Z,1.77
2017-11-07T18:41:19.196Z,1.81
2017-11-07T18:43:46.862Z,1.87
2017-11-07T18:46:14.561Z,1.92
2017-11-07T18:48:42.201Z,1.99
2017-11-07T18:51:09.911Z,2.04
2017-11-07T18:53:37.577Z,2.11
2017-11-07T18:56:05.250Z,2.26
2017-11-07T18:58:32.946Z,2.38
2017-11-07T19:01:00.615Z,2.47
2017-11-07T19:03:28.306Z,2.53
2017-11-07T19:05:55.967Z,2.56
2017-11-07T19:08:23.667Z,2.65
2017-11-07T19:10:51.318Z,2.68
2017-11-07T19:13:18.984Z,2.71
2017-11-07T19:15:46.630Z,2.70
2017-11-07T19:18:14.341Z,2.71
2017-11-07T19:20:42.026Z,2.72
2017-11-07T19:23:09.723Z,2.70
2017-11-07T19:25:37.374Z,2.68
2017-11-07T19:28:05.073Z,2.68
2017-11-07T19:30:32.756Z,2.65
2017-11-07T19:33:00.408Z,2.64
2017-11-07T19:35:28.106Z,2.66
2017-11-07T19:37:55.830Z,2.66
2017-11-07T19:40:23.531Z,2.66
2017-11-07T19:42:51.183Z,2.64
2017-11-07T19:45:18.866Z,2.61
2017-11-07T19:47:46.536Z,2.60
2017-11-07T19:50:15.249Z,2.61
2017-11-07T19:52:42.906Z,2.62
2017-11-07T19:55:10.562Z,2.59
2017-11-07T19:57:38.223Z,2.55
2017-11-07T20:00:05.921Z,2.52
2017-11-07T20:02:33.569Z,2.49
2017-11-07T20:05:01.271Z,2.51
2017-11-07T20:07:28.852Z,2.52
2017-11-07T20:09:56.561Z,2.56
2017-11-07T20:12:24.191Z,2.55
2017-11-07T20:14:51.909Z,2.60
2017-11-07T20:17:19.592Z,2.66
2017-11-07T20:19:47.303Z,2.79
2017-11-07T20:22:14.969Z,2.90
2017-11-07T20:24:42.611Z,3.05
2017-11-07T20:27:10.305Z,3.15
2017-11-07T20:29:37.962Z,3.21
2017-11-07T20:32:05.669Z,3.27
2017-11-07T20:34:33.315Z,3.36
2017-11-07T20:37:01.021Z,3.41
2017-11-07T20:39:28.703Z,3.47
2017-11-07T20:41:56.400Z,3.55
2017-11-07T20:44:24.067Z,3.62
2017-11-07T20:46:51.743Z,3.67
2017-11-07T20:49:19.397Z,3.70
2017-11-07T20:51:47.105Z,3.74
2017-11-07T20:54:14.750Z,3.80
2017-11-07T20:56:42.453Z,3.85
2017-11-07T20:59:10.099Z,3.89
2017-11-07T21:01:37.829Z,3.95
2017-11-07T21:04:05.491Z,3.97
2017-11-07T21:06:33.142Z,4.02
2017-11-07T21:09:00.835Z,4.02
2017-11-07T21:11:28.498Z,4.05
2017-11-07T21:13:56.194Z,4.08
2017-11-07T21:16:23.858Z,4.12
2017-11-07T21:18:52.610Z,4.16
2017-11-07T21:21:20.493Z,4.17
2017-11-07T21:23:48.205Z,4.18
2017-11-07T21:26:15.867Z,4.20
2017-11-07T21:28:43.539Z,4.22
2017-11-07T21:31:11.218Z,4.24
2017-11-07T21:33:38.859Z,4.25
2017-11-07T21:36:06.516Z,4.28
2017-11-07T21:38:34.175Z,4.31
2017-11-07T21:41:01.786Z,4.34
2017-11-07T21:43:29.520Z,4.36
2017-11-07T21:45:57.226Z,4.39
2017-11-07T21:48:24.811Z,4.43
2017-11-07T21:50:52.497Z,4.45
2017-11-07T21:53:20.171Z,4.47
2017-11-07T21:55:47.875Z,4.50
2017-11-07T21:58:15.546Z,4.52
2017-11-07T22:00:44.347Z,4.54
2017-11-07T22:03:12.000Z,4.58
2017-11-07T22:05:39.613Z,4.67
2017-11-07T22:08:07.250Z,4.72
2017-11-07T22:10:35.410Z,4.75
2017-11-07T22:13:03.295Z,4.76
2017-11-07T22:18:15.551Z,4.85
2017-11-07T22:20:43.613Z,4.87
2017-11-07T22:23:17.030Z,4.90
2017-11-07T22:25:44.771Z,4.94
2017-11-07T22:28:12.451Z,4.96
2017-11-07T22:30:40.211Z,4.97
2017-11-07T22:33:07.978Z,4.97
2017-11-07T22:35:35.604Z,4.98
2017-11-07T22:38:03.231Z,5.00
2017-11-07T22:40:30.866Z,5.01
2017-11-07T22:42:58.495Z,5.07
2017-11-07T22:45:28.869Z,5.08
2017-11-07T22:47:56.773Z,5.08
2017-11-07T22:50:24.358Z,5.08
2017-11-07T22:52:52.057Z,5.10
2017-11-07T22:55:19.938Z,5.10
2017-11-07T22:57:47.551Z,5.12
2017-11-07T23:00:15.205Z,5.12
2017-11-07T23:02:42.902Z,5.13
2017-11-07T23:05:10.508Z,5.14
2017-11-07T23:07:38.145Z,5.15
2017-11-07T23:10:05.740Z,5.15
2017-11-07T23:12:33.383Z,5.16
2017-11-07T23:15:01.095Z,5.17
2017-11-07T23:17:28.763Z,5.18
2017-11-07T23:19:56.383Z,5.20
2017-11-07T23:22:24.116Z,5.21
2017-11-07T23:24:51.829Z,5.24
2017-11-07T23:27:19.469Z,5.26
2017-11-07T23:29:47.158Z,5.26
2017-11-07T23:32:14.817Z,5.28
2017-11-07T23:34:42.460Z,5.28
2017-11-07T23:37:10.053Z,5.31
2017-11-07T23:39:37.688Z,5.33
2017-11-07T23:42:05.315Z,5.38
2017-11-07T23:44:32.957Z,5.37
2017-11-07T23:47:00.611Z,5.41
2017-11-07T23:49:28.209Z,5.43
2017-11-07T23:51:55.835Z,5.40
2017-11-07T23:54:23.486Z,5.42
2017-11-07T23:56:51.206Z,5.42
2017-11-07T23:59:19.785Z,5.41
